Encino, CA

11:47 AM PST on November 28, 2014 (GMT -0800)
Burbank-Glendale-Pasadena | Change Station
CLOSE
Current Station
Airport
Location: Burbank,
Elevation: 774 ft
Nearby Weather Stations

Elev 774 ft 34.20 °N, 118.36 °W | Updated 54 minutes ago

Clear
Clear
76 °F
Feels Like 76 °F
N
4
Wind Variable Wind from SSE

Today
High -- | Low -- °F
--% Chance of Precip.
Yesterday
High -- | Low -- °F
Precip. -- in
6:39 AM 4:44 PM
Waxing Crescent, 43% visible
Pressure 29.96 in
Visibility 10.0 miles
Clouds Clear
Dew Point 26 °F
Humidity 16%
Rainfall 0.00 in
Snow Depth Not available.
UV 4 out of 12
Pollen 2.10 out of 12
Air Quality Not available.
Flu Activity Not available.
METAR KBUR 281853Z 16003KT 10SM CLR 24/M03 A2999 RMK AO2 SLP143 T02441033

More Conditions Fewer Conditions

Pressure 29.96 in
Visibility 10.0 miles
Clouds Clear
Dew Point 26 °F
Humidity 16%
Rainfall 0.00 in
Snow Depth Not available.
UV 4 out of 12
Pollen 2.10 out of 12
Air Quality Not available.
Flu Activity Not available.
METAR KBUR 281853Z 16003KT 10SM CLR 24/M03 A2999 RMK AO2 SLP143 T02441033

More Conditions Fewer Conditions

10-Day Weather Forecast

Almanac

Astronomy

Nov. 28, 2014 Rise Set
Actual Time
Civil Twilight
Nautical Twilight
Astronomical Twilight
Moon
Length of Visible Light
Length of Day
Tomorrow will be .
, % of the Moon is Illuminated

Today's Extremes

State Highs State Lows

Community

WunderPhotos

Upload Photos

1,774,271 photos uploaded!

WunderBlogs® & News

Nearby

Air Quality

  Air Quality AQ Index Pollutant
Not available.

Snow Depth

Station Depth Elevation

Earthquake Activity

City Distance Mag. Time & Date
Minimum magnitude displayed is 2.5.

Coastal Water Temperatures

Place Temperature

Nearby Weather Stations